Time;durP1;ratioP1;P1;durP2;ratioP2;P2;SDS_P1;SDS_P2;PMS_P1;PMS_P2;Temp;Humidity;BMP_temperature;BMP_pressure;BME280_temperature;BME280_humidity;BME280_pressure;Samples;Min_cycle;Max_cycle;Signal;HPM_P1;HPM_P2
2022/04/04 00:00:24;;;;;;;1.57;0.60;;;-1.30;99.90;;;;;;5074523;28;20470;-76
2022/04/04 00:02:50;;;;;;;0.40;0.37;;;-1.30;99.90;;;;;;5073630;28;20807;-76
2022/04/04 00:05:17;;;;;;;0.30;0.30;;;-1.40;99.90;;;;;;5074335;28;20429;-76
2022/04/04 00:07:44;;;;;;;0.30;0.30;;;-1.40;99.90;;;;;;5074195;28;20915;-76
2022/04/04 00:10:10;;;;;;;0.30;0.30;;;-1.30;99.90;;;;;;5074436;28;20493;-76
2022/04/04 00:12:37;;;;;;;0.30;0.30;;;-1.30;99.90;;;;;;5074198;28;20936;-76
2022/04/04 00:15:06;;;;;;;0.30;0.30;;;-1.40;99.90;;;;;;5074048;28;20419;-76
2022/04/04 00:17:33;;;;;;;0.33;0.33;;;-1.30;99.90;;;;;;5074394;28;20426;-76
2022/04/04 00:20:00;;;;;;;0.30;0.30;;;-1.40;99.90;;;;;;5073827;28;20466;-76
2022/04/04 00:22:27;;;;;;;0.30;0.30;;;-1.40;99.90;;;;;;5074107;28;20495;-76
2022/04/04 00:24:54;;;;;;;0.30;0.30;;;-1.40;99.90;;;;;;5074307;28;20716;-76
2022/04/04 00:27:20;;;;;;;0.70;0.70;;;-1.40;99.90;;;;;;5073818;28;20460;-76
2022/04/04 00:29:47;;;;;;;0.30;0.30;;;-1.40;99.90;;;;;;5074045;28;20462;-76
2022/04/04 00:32:15;;;;;;;0.30;0.30;;;-1.40;99.90;;;;;;5074080;28;20424;-76
2022/04/04 00:34:42;;;;;;;0.83;0.60;;;-1.40;99.90;;;;;;5073697;28;20431;-76
2022/04/04 00:37:08;;;;;;;0.30;0.30;;;-1.40;99.90;;;;;;5073968;28;20416;-76
2022/04/04 00:39:35;;;;;;;0.57;0.50;;;-1.40;99.90;;;;;;5073768;28;20822;-76
2022/04/04 00:42:02;;;;;;;0.83;0.83;;;-1.40;99.90;;;;;;5073854;28;20423;-76
2022/04/04 00:44:29;;;;;;;0.30;0.30;;;-1.40;99.90;;;;;;5073559;28;20452;-76
2022/04/04 00:46:56;;;;;;;0.30;0.30;;;-1.50;99.90;;;;;;5073838;28;20485;-76
2022/04/04 00:49:24;;;;;;;0.30;0.30;;;-1.50;99.90;;;;;;5073722;28;20451;-76
2022/04/04 00:51:51;;;;;;;0.30;0.30;;;-1.50;99.90;;;;;;5073435;28;20448;-76
2022/04/04 00:54:18;;;;;;;0.30;0.20;;;-1.50;99.90;;;;;;5073722;28;20451;-76
2022/04/04 00:56:46;;;;;;;0.30;0.30;;;-1.50;99.90;;;;;;5073660;28;20420;-76
2022/04/04 00:59:17;;;;;;;0.30;0.30;;;-1.50;99.90;;;;;;5073285;28;20458;-76
2022/04/04 01:01:44;;;;;;;0.50;0.50;;;-1.50;99.90;;;;;;5073651;28;20422;-76
2022/04/04 01:04:11;;;;;;;0.40;0.40;;;-1.50;99.90;;;;;;5073611;28;20820;-76
2022/04/04 01:06:40;;;;;;;0.30;0.30;;;-1.50;99.90;;;;;;5073614;28;20400;-76
2022/04/04 01:09:07;;;;;;;0.30;0.30;;;-1.60;99.90;;;;;;5073492;28;20412;-76
2022/04/04 01:11:35;;;;;;;0.30;0.30;;;-1.60;99.90;;;;;;5073383;28;20444;-80
2022/04/04 01:14:02;;;;;;;0.50;0.50;;;-1.60;99.90;;;;;;5073868;28;20449;-80
2022/04/04 01:16:29;;;;;;;0.30;0.30;;;-1.70;99.90;;;;;;5073444;28;20427;-80
2022/04/04 01:18:55;;;;;;;0.30;0.20;;;-1.60;99.90;;;;;;5073111;28;20832;-80
2022/04/04 01:21:22;;;;;;;0.30;0.20;;;-1.60;99.90;;;;;;5073329;28;20481;-80
2022/04/04 01:23:51;;;;;;;0.37;0.37;;;-1.60;99.90;;;;;;5073098;28;20467;-79
2022/04/04 01:26:21;;;;;;;0.30;0.30;;;-1.60;99.90;;;;;;5073016;28;20532;-80
2022/04/04 01:28:47;;;;;;;0.30;0.30;;;-1.60;99.90;;;;;;5073351;28;20445;-80
2022/04/04 01:31:14;;;;;;;0.30;0.30;;;-1.70;99.90;;;;;;5072971;28;20825;-80
2022/04/04 01:33:41;;;;;;;0.30;0.30;;;-1.70;99.90;;;;;;5072966;28;20928;-80
2022/04/04 01:36:08;;;;;;;0.30;0.30;;;-1.70;99.90;;;;;;5073228;28;20867;-80
2022/04/04 01:38:35;;;;;;;0.30;0.30;;;-1.70;99.90;;;;;;5073229;28;20418;-80
2022/04/04 01:41:01;;;;;;;0.30;0.30;;;-1.70;99.90;;;;;;5072756;28;20983;-79
2022/04/04 01:43:29;;;;;;;0.30;0.30;;;-1.70;99.90;;;;;;5073163;28;20437;-79
2022/04/04 01:48:40;;;;;;;0.30;0.30;;;-1.70;99.90;;;;;;5073215;28;20892;-80
2022/04/04 01:51:07;;;;;;;0.30;0.30;;;-1.70;99.90;;;;;;5073244;28;20444;-80
2022/04/04 01:53:34;;;;;;;0.30;0.30;;;-1.70;99.90;;;;;;5072791;28;20411;-80
2022/04/04 01:56:03;;;;;;;0.30;0.30;;;-1.70;99.90;;;;;;5072763;28;20510;-80
2022/04/04 01:58:32;;;;;;;0.30;0.30;;;-1.70;99.90;;;;;;5072703;28;20456;-80
2022/04/04 02:01:01;;;;;;;0.30;0.30;;;-1.80;99.90;;;;;;5072881;28;20831;-80
2022/04/04 02:03:29;;;;;;;0.30;0.30;;;-1.80;99.90;;;;;;5073001;28;20424;-80
2022/04/04 02:05:56;;;;;;;0.30;0.30;;;-1.90;99.90;;;;;;5072938;28;20446;-80
2022/04/04 02:08:23;;;;;;;0.30;0.30;;;-1.90;99.90;;;;;;5073197;28;20427;-80
2022/04/04 02:10:49;;;;;;;0.30;0.30;;;-2.00;99.90;;;;;;5072828;28;20440;-80
2022/04/04 02:13:16;;;;;;;0.30;0.30;;;-2.10;99.90;;;;;;5072883;28;20416;-80
2022/04/04 02:15:44;;;;;;;0.30;0.30;;;-2.10;99.90;;;;;;5072851;28;20427;-80
2022/04/04 02:18:11;;;;;;;1.07;1.07;;;-2.10;99.90;;;;;;5072820;28;20455;-80
2022/04/04 02:20:38;;;;;;;0.30;0.30;;;-2.10;99.90;;;;;;5072701;28;20503;-80
2022/04/04 02:23:05;;;;;;;0.30;0.30;;;-2.00;99.90;;;;;;5072448;28;20451;-80
2022/04/04 02:25:31;;;;;;;0.30;0.30;;;-2.10;99.90;;;;;;5072767;28;20449;-80
2022/04/04 02:27:58;;;;;;;0.30;0.30;;;-2.10;99.90;;;;;;5076263;28;20427;-80
2022/04/04 02:30:25;;;;;;;0.40;0.40;;;-2.10;99.90;;;;;;5076437;28;20544;-76
2022/04/04 02:32:53;;;;;;;0.30;0.30;;;-2.10;99.90;;;;;;5076392;28;20452;-76
2022/04/04 02:35:20;;;;;;;0.40;0.40;;;-2.20;99.90;;;;;;5076353;28;20431;-79
2022/04/04 02:37:47;;;;;;;0.33;0.33;;;-2.20;99.90;;;;;;5076291;28;20455;-79
2022/04/04 02:40:14;;;;;;;0.30;0.30;;;-2.20;99.90;;;;;;5076188;28;20470;-74
2022/04/04 02:42:41;;;;;;;0.30;0.30;;;-2.20;99.90;;;;;;5076140;28;20426;-74
2022/04/04 02:45:08;;;;;;;0.40;0.40;;;-2.10;99.90;;;;;;5076149;28;20451;-74
2022/04/04 02:47:35;;;;;;;0.37;0.37;;;-2.10;99.90;;;;;;5076103;28;20427;-74
2022/04/04 02:50:04;;;;;;;0.40;0.40;;;-2.10;99.90;;;;;;5075981;28;20466;-74
2022/04/04 02:52:31;;;;;;;0.50;0.50;;;-2.10;99.90;;;;;;5076003;28;20424;-74
2022/04/04 02:54:57;;;;;;;0.30;0.30;;;-2.10;99.90;;;;;;5075672;28;20953;-74
2022/04/04 02:57:23;;;;;;;0.30;0.30;;;-2.10;99.90;;;;;;5075968;28;20416;-74
2022/04/04 02:59:50;;;;;;;0.30;0.30;;;-2.10;99.90;;;;;;5075833;28;20449;-74
2022/04/04 03:02:17;;;;;;;0.40;0.40;;;-2.10;99.90;;;;;;5075935;28;20571;-74
2022/04/04 03:04:44;;;;;;;0.40;0.40;;;-2.20;99.90;;;;;;5075816;28;20449;-74
2022/04/04 03:07:12;;;;;;;0.30;0.30;;;-2.30;99.90;;;;;;5075711;28;20919;-74
2022/04/04 03:09:39;;;;;;;0.30;0.30;;;-2.30;99.90;;;;;;5075337;28;20472;-74
2022/04/04 03:12:08;;;;;;;0.50;0.50;;;-2.30;99.90;;;;;;5075628;28;20440;-74
2022/04/04 03:14:34;;;;;;;0.30;0.30;;;-2.30;99.90;;;;;;5075317;28;20449;-74
2022/04/04 03:17:01;;;;;;;0.30;0.30;;;-2.30;99.90;;;;;;5075280;28;20902;-74
2022/04/04 03:19:28;;;;;;;0.30;0.30;;;-2.30;99.90;;;;;;5075488;28;20446;-74
2022/04/04 03:21:56;;;;;;;0.40;0.40;;;-2.30;99.90;;;;;;5075199;28;20487;-74
2022/04/04 03:24:24;;;;;;;0.30;0.30;;;-2.30;99.90;;;;;;5075483;28;20532;-74
2022/04/04 03:26:51;;;;;;;0.50;0.50;;;-2.30;99.90;;;;;;5075374;28;20435;-73
2022/04/04 03:29:18;;;;;;;0.30;0.30;;;-2.30;99.90;;;;;;5075269;28;20447;-74
2022/04/04 03:31:45;;;;;;;0.83;0.83;;;-2.30;99.90;;;;;;5075293;28;20419;-74
2022/04/04 03:34:11;;;;;;;0.30;0.30;;;-2.30;99.90;;;;;;5075215;28;20420;-74
2022/04/04 03:36:38;;;;;;;0.30;0.30;;;-2.30;99.90;;;;;;5075050;28;20427;-74
2022/04/04 03:39:06;;;;;;;0.30;0.30;;;-2.30;99.90;;;;;;5075108;28;20426;-74
2022/04/04 03:41:34;;;;;;;0.30;0.30;;;-2.30;99.90;;;;;;5075044;28;20466;-74
2022/04/04 03:44:01;;;;;;;0.30;0.30;;;-2.30;99.90;;;;;;5075009;28;20449;-74
2022/04/04 03:46:28;;;;;;;0.30;0.30;;;-2.30;99.90;;;;;;5075019;28;20451;-74
2022/04/04 03:48:54;;;;;;;0.30;0.30;;;-2.30;99.90;;;;;;5074958;28;20427;-74
2022/04/04 03:51:21;;;;;;;0.40;0.40;;;-2.30;99.90;;;;;;5074824;28;20432;-74
2022/04/04 03:53:48;;;;;;;0.30;0.30;;;-2.30;99.90;;;;;;5074850;28;20427;-74
2022/04/04 03:56:15;;;;;;;0.30;0.30;;;-2.30;99.90;;;;;;5074853;28;20444;-74
2022/04/04 03:58:43;;;;;;;1.03;0.60;;;-2.30;99.90;;;;;;5074758;28;20419;-74
2022/04/04 04:01:10;;;;;;;0.30;0.30;;;-2.40;99.90;;;;;;5074587;28;20455;-74
2022/04/04 04:03:37;;;;;;;0.30;0.30;;;-2.40;99.90;;;;;;5074627;28;20497;-74
2022/04/04 04:06:14;;;;;;;0.33;0.33;;;-2.40;99.90;;;;;;5074283;28;20416;-74
2022/04/04 04:08:42;;;;;;;0.50;0.50;;;-2.50;99.90;;;;;;5074616;28;20824;-74
2022/04/04 04:11:09;;;;;;;0.30;0.30;;;-2.50;99.90;;;;;;5074429;28;20435;-74
2022/04/04 04:13:36;;;;;;;0.30;0.30;;;-2.50;99.90;;;;;;5074465;28;20445;-74
2022/04/04 04:16:05;;;;;;;0.30;0.30;;;-2.50;99.90;;;;;;5074076;28;20428;-74
2022/04/04 04:18:32;;;;;;;0.30;0.30;;;-2.50;99.90;;;;;;5074369;28;20420;-74
2022/04/04 04:20:59;;;;;;;0.30;0.30;;;-2.50;99.90;;;;;;5074115;28;20484;-74
2022/04/04 04:23:26;;;;;;;1.00;0.80;;;-2.50;99.90;;;;;;5073760;28;20443;-74
2022/04/04 04:25:53;;;;;;;0.30;0.30;;;-2.50;99.90;;;;;;5073916;28;20520;-75
2022/04/04 04:28:20;;;;;;;0.30;0.30;;;-2.60;99.90;;;;;;5074160;28;20419;-75
2022/04/04 04:30:46;;;;;;;0.40;0.40;;;-2.60;99.90;;;;;;5073801;28;20460;-75
2022/04/04 04:33:15;;;;;;;1.33;1.13;;;-2.60;99.90;;;;;;5073803;28;20440;-75
2022/04/04 04:35:41;;;;;;;0.30;0.30;;;-2.60;99.90;;;;;;5074014;28;20449;-75
2022/04/04 04:38:08;;;;;;;0.37;0.37;;;-2.50;99.90;;;;;;5074030;28;20428;-75
2022/04/04 04:40:35;;;;;;;0.30;0.30;;;-2.50;99.90;;;;;;5073589;28;20934;-75
2022/04/04 04:43:03;;;;;;;0.30;0.30;;;-2.50;99.90;;;;;;5074115;28;20456;-75
2022/04/04 04:45:30;;;;;;;0.50;0.50;;;-2.60;99.90;;;;;;5073865;28;20452;-75
2022/04/04 04:47:56;;;;;;;0.30;0.30;;;-2.60;99.90;;;;;;5073837;28;20445;-75
2022/04/04 04:50:25;;;;;;;0.30;0.30;;;-2.60;99.90;;;;;;5073235;28;20448;-75
2022/04/04 04:52:53;;;;;;;0.30;0.30;;;-2.60;99.90;;;;;;5073819;28;20433;-75
2022/04/04 04:55:21;;;;;;;0.40;0.40;;;-2.60;99.90;;;;;;5073460;28;20922;-76
2022/04/04 04:57:49;;;;;;;0.30;0.30;;;-2.60;99.90;;;;;;5073472;28;20448;-76
2022/04/04 05:00:18;;;;;;;0.30;0.30;;;-2.60;99.90;;;;;;5073593;28;20443;-76
2022/04/04 05:02:45;;;;;;;0.30;0.30;;;-2.60;99.90;;;;;;5073567;28;20459;-76
2022/04/04 05:05:12;;;;;;;0.40;0.40;;;-2.50;99.90;;;;;;5073392;28;20419;-76
2022/04/04 05:07:40;;;;;;;0.50;0.50;;;-2.50;99.90;;;;;;5073528;28;20449;-76
2022/04/04 05:10:07;;;;;;;0.30;0.30;;;-2.50;99.90;;;;;;5073518;28;20514;-76
2022/04/04 05:12:34;;;;;;;0.30;0.30;;;-2.50;99.90;;;;;;5073271;28;20419;-76
2022/04/04 05:15:01;;;;;;;0.30;0.30;;;-2.60;99.90;;;;;;5073585;28;20458;-77
2022/04/04 05:17:28;;;;;;;0.93;0.93;;;-2.50;99.90;;;;;;5073233;28;20417;-76
2022/04/04 05:19:55;;;;;;;0.60;0.60;;;-2.50;99.90;;;;;;5073400;28;20447;-76
2022/04/04 05:22:21;;;;;;;0.30;0.30;;;-2.50;99.90;;;;;;5073172;28;20459;-75
2022/04/04 05:24:49;;;;;;;0.40;0.40;;;-2.50;99.90;;;;;;5073084;28;20447;-76
2022/04/04 05:27:16;;;;;;;0.30;0.30;;;-2.50;99.90;;;;;;5073253;28;20791;-76
2022/04/04 05:29:43;;;;;;;0.30;0.30;;;-2.50;99.90;;;;;;5073261;28;20477;-75
2022/04/04 05:32:10;;;;;;;0.30;0.30;;;-2.60;99.90;;;;;;5073531;28;20445;-75
2022/04/04 05:34:36;;;;;;;0.57;0.57;;;-2.50;99.90;;;;;;5072974;28;20927;-75
2022/04/04 05:37:04;;;;;;;0.30;0.30;;;-2.50;99.90;;;;;;5073518;28;20423;-75
2022/04/04 05:39:30;;;;;;;0.40;0.40;;;-2.50;99.90;;;;;;5073220;28;20534;-76
2022/04/04 05:41:58;;;;;;;0.60;0.60;;;-2.50;99.90;;;;;;5073134;28;20491;-75
2022/04/04 05:44:26;;;;;;;0.83;0.60;;;-2.50;99.90;;;;;;5072942;28;20937;-76
2022/04/04 05:46:53;;;;;;;1.83;0.70;;;-2.50;99.90;;;;;;5073181;28;20453;-75
2022/04/04 05:49:20;;;;;;;0.33;0.33;;;-2.50;99.90;;;;;;5073113;28;20466;-75
2022/04/04 05:51:48;;;;;;;0.40;0.40;;;-2.40;99.90;;;;;;5073108;28;20419;-75
2022/04/04 05:54:15;;;;;;;2.43;2.30;;;-2.40;99.90;;;;;;5073097;28;20427;-75
2022/04/04 05:56:44;;;;;;;0.30;0.30;;;-2.40;99.90;;;;;;5072833;28;20943;-75
2022/04/04 05:59:13;;;;;;;0.30;0.30;;;-2.40;99.90;;;;;;5072650;28;20926;-75
2022/04/04 06:01:40;;;;;;;0.30;0.30;;;-2.30;99.90;;;;;;5076798;28;20554;-75
2022/04/04 06:04:07;;;;;;;0.40;0.40;;;-2.30;99.90;;;;;;5077000;28;20419;-75
2022/04/04 06:06:34;;;;;;;0.30;0.30;;;-2.20;99.90;;;;;;5076925;28;20425;-75
2022/04/04 06:09:01;;;;;;;0.30;0.30;;;-2.10;99.90;;;;;;5077016;28;20828;-75
2022/04/04 06:11:27;;;;;;;0.87;0.87;;;-2.00;99.90;;;;;;5076804;28;20430;-75
2022/04/04 06:13:54;;;;;;;0.30;0.30;;;-2.00;99.90;;;;;;5076430;28;20815;-76
2022/04/04 06:16:22;;;;;;;0.60;0.60;;;-2.10;99.90;;;;;;5076758;28;20420;-75
2022/04/04 06:18:50;;;;;;;0.30;0.30;;;-2.00;99.90;;;;;;5076678;28;20427;-75
2022/04/04 06:21:17;;;;;;;0.87;0.80;;;-1.90;99.90;;;;;;5076471;28;20461;-74
2022/04/04 06:23:44;;;;;;;0.70;0.70;;;-1.80;99.90;;;;;;5076186;28;20454;-74
2022/04/04 06:26:12;;;;;;;0.50;0.50;;;-1.80;99.90;;;;;;5076180;28;20950;-74
2022/04/04 06:28:39;;;;;;;0.30;0.30;;;-1.60;99.90;;;;;;5076201;28;20465;-74
2022/04/04 06:31:06;;;;;;;0.70;0.70;;;-1.30;99.90;;;;;;5076380;28;20452;-74
2022/04/04 06:33:34;;;;;;;1.17;1.13;;;-0.80;99.90;;;;;;5076433;28;20453;-74
2022/04/04 06:36:01;;;;;;;0.63;0.63;;;-0.10;99.90;;;;;;5075957;28;20825;-74
2022/04/04 06:38:28;;;;;;;0.30;0.30;;;0.50;99.90;;;;;;5076054;28;20931;-74
2022/04/04 06:40:55;;;;;;;0.30;0.30;;;1.10;99.90;;;;;;5076261;28;20465;-75
2022/04/04 06:43:22;;;;;;;0.30;0.30;;;1.60;99.90;;;;;;5075920;28;20563;-75
2022/04/04 06:45:49;;;;;;;0.30;0.30;;;1.80;99.90;;;;;;5075867;28;20452;-75
2022/04/04 06:48:16;;;;;;;0.40;0.40;;;1.70;99.90;;;;;;5076160;28;20447;-74
2022/04/04 06:50:44;;;;;;;0.70;0.40;;;1.40;99.90;;;;;;5076024;28;20472;-74
2022/04/04 06:53:11;;;;;;;0.30;0.30;;;1.10;99.90;;;;;;5076034;28;20441;-74
2022/04/04 06:55:39;;;;;;;0.30;0.30;;;0.80;99.90;;;;;;5075988;28;20456;-74
2022/04/04 06:58:07;;;;;;;0.30;0.30;;;0.60;99.90;;;;;;5075979;28;20459;-75
2022/04/04 07:00:34;;;;;;;0.30;0.20;;;0.40;99.90;;;;;;5075825;28;20465;-74
2022/04/04 07:03:01;;;;;;;3.17;0.70;;;0.40;99.90;;;;;;5075768;28;20491;-74
2022/04/04 07:05:28;;;;;;;0.30;0.30;;;0.50;99.90;;;;;;5075803;28;20449;-74
2022/04/04 07:07:56;;;;;;;0.40;0.40;;;0.40;99.90;;;;;;5075674;28;20452;-75
2022/04/04 07:10:23;;;;;;;0.50;0.40;;;0.50;99.90;;;;;;5075642;28;20840;-74
2022/04/04 07:12:50;;;;;;;0.30;0.20;;;0.60;99.90;;;;;;5074996;28;20446;-74
2022/04/04 07:15:17;;;;;;;0.47;0.47;;;0.60;99.90;;;;;;5075325;28;20454;-74
2022/04/04 07:17:45;;;;;;;0.30;0.30;;;0.80;99.90;;;;;;5075547;28;20453;-74
2022/04/04 07:20:13;;;;;;;0.60;0.43;;;1.00;99.90;;;;;;5075342;28;20984;-74
2022/04/04 07:22:41;;;;;;;0.30;0.30;;;1.10;99.90;;;;;;5075111;28;20503;-74
2022/04/04 07:25:11;;;;;;;1.57;1.47;;;1.30;99.90;;;;;;5075455;28;20502;-74
2022/04/04 07:27:40;;;;;;;0.30;0.30;;;1.50;99.90;;;;;;5075508;28;20458;-74
2022/04/04 07:30:08;;;;;;;0.30;0.30;;;1.80;99.90;;;;;;5075312;28;20460;-74
2022/04/04 07:32:36;;;;;;;1.00;1.00;;;2.30;99.90;;;;;;5075329;28;20440;-74
2022/04/04 07:35:04;;;;;;;0.30;0.30;;;3.00;99.90;;;;;;5075318;28;20481;-75
2022/04/04 07:37:31;;;;;;;0.30;0.30;;;3.10;99.90;;;;;;5075276;28;20476;-74
2022/04/04 07:39:58;;;;;;;0.30;0.30;;;3.40;99.90;;;;;;5075073;28;20468;-74
2022/04/04 07:42:27;;;;;;;0.40;0.40;;;3.40;99.90;;;;;;5075135;28;20889;-74
2022/04/04 07:44:54;;;;;;;0.30;0.20;;;3.50;99.90;;;;;;5075259;28;20510;-79
2022/04/04 07:47:20;;;;;;;0.30;0.30;;;3.40;99.90;;;;;;5075642;28;20441;-79
2022/04/04 07:49:47;;;;;;;0.30;0.20;;;3.40;99.90;;;;;;5074802;28;20468;-79
2022/04/04 07:52:14;;;;;;;0.40;0.40;;;3.50;99.90;;;;;;5074607;28;20932;-78
2022/04/04 07:54:41;;;;;;;0.30;0.30;;;3.60;99.90;;;;;;5075786;28;20433;-78
2022/04/04 07:57:08;;;;;;;0.40;0.40;;;3.70;99.90;;;;;;5075100;28;20526;-78
2022/04/04 07:59:36;;;;;;;0.30;0.30;;;3.80;99.90;;;;;;5075215;28;20468;-78
2022/04/04 08:02:03;;;;;;;0.30;0.30;;;3.70;99.90;;;;;;5074986;28;20525;-79
2022/04/04 08:04:30;;;;;;;0.70;0.43;;;3.70;99.90;;;;;;5074471;28;20456;-79
2022/04/04 08:06:56;;;;;;;0.30;0.30;;;4.00;99.90;;;;;;5074854;28;20437;-79
2022/04/04 08:09:23;;;;;;;0.30;0.30;;;4.00;99.90;;;;;;5074737;28;20475;-79
2022/04/04 08:11:52;;;;;;;0.30;0.30;;;4.00;99.90;;;;;;5074628;28;20468;-79
2022/04/04 08:14:19;;;;;;;0.30;0.20;;;4.10;99.90;;;;;;5074495;28;20872;-80
2022/04/04 08:16:47;;;;;;;0.93;0.30;;;4.30;99.90;;;;;;5074770;28;20425;-81
2022/04/04 08:19:15;;;;;;;1.63;0.83;;;4.30;99.90;;;;;;5075624;28;20506;-81
2022/04/04 08:21:42;;;;;;;0.40;0.30;;;4.30;99.90;;;;;;5076422;28;20448;-82
2022/04/04 08:24:09;;;;;;;0.40;0.30;;;4.30;99.90;;;;;;5075995;28;20848;-82
2022/04/04 08:26:37;;;;;;;0.40;0.40;;;4.50;99.90;;;;;;5076451;28;20433;-82
2022/04/04 08:29:04;;;;;;;0.97;0.50;;;4.60;99.90;;;;;;5077053;28;20483;-83
2022/04/04 08:31:31;;;;;;;0.30;0.30;;;4.70;99.90;;;;;;5076952;28;20440;-83
2022/04/04 08:33:59;;;;;;;0.30;0.30;;;4.90;99.90;;;;;;5076296;28;20441;-81
2022/04/04 08:36:26;;;;;;;0.30;0.20;;;5.00;99.90;;;;;;5074856;28;20439;-81
2022/04/04 08:38:53;;;;;;;0.30;0.30;;;5.00;99.90;;;;;;5074359;28;20449;-80
2022/04/04 08:41:22;;;;;;;0.30;0.30;;;5.00;99.90;;;;;;5073789;28;20481;-80
2022/04/04 08:43:50;;;;;;;0.53;0.53;;;5.20;99.90;;;;;;5074043;28;20492;-79
2022/04/04 08:46:17;;;;;;;0.70;0.70;;;5.30;99.90;;;;;;5074007;28;20442;-79
2022/04/04 08:48:45;;;;;;;0.50;0.40;;;5.60;99.90;;;;;;5073705;28;20437;-80
2022/04/04 08:51:14;;;;;;;0.30;0.30;;;5.80;99.90;;;;;;5073810;28;20469;-80
2022/04/04 08:53:41;;;;;;;0.30;0.30;;;5.80;99.90;;;;;;5073879;28;20471;-80
2022/04/04 08:56:09;;;;;;;0.50;0.30;;;6.20;99.90;;;;;;5074013;28;20430;-80
2022/04/04 08:58:36;;;;;;;0.30;0.20;;;6.70;99.90;;;;;;5074048;28;20433;-81
2022/04/04 09:01:03;;;;;;;2.03;0.50;;;7.60;99.90;;;;;;5073920;28;20483;-80
2022/04/04 09:03:31;;;;;;;1.00;1.00;;;8.90;99.90;;;;;;5074127;28;20556;-81
2022/04/04 09:05:59;;;;;;;0.40;0.40;;;10.90;95.10;;;;;;5074732;28;20804;-82
2022/04/04 09:08:29;;;;;;;0.40;0.40;;;12.50;90.80;;;;;;5073970;28;20438;-81
2022/04/04 09:11:00;;;;;;;0.60;0.60;;;13.60;78.80;;;;;;5073585;28;20473;-81
2022/04/04 09:13:29;;;;;;;2.50;0.87;;;14.50;68.30;;;;;;5073286;28;20429;-80
2022/04/04 09:15:59;;;;;;;0.73;0.73;;;14.70;65.90;;;;;;5073498;28;20433;-80
2022/04/04 09:18:46;;;;;;;0.90;0.77;;;15.10;65.10;;;;;;5073644;28;20447;-79
2022/04/04 09:21:27;;;;;;;0.47;0.47;;;14.90;60.10;;;;;;5073328;28;20473;-80
2022/04/04 09:23:57;;;;;;;1.27;0.90;;;14.90;60.10;;;;;;5073123;28;20498;-80
2022/04/04 09:26:29;;;;;;;1.20;1.10;;;14.50;58.60;;;;;;5073655;28;20440;-80
2022/04/04 09:28:56;;;;;;;2.47;1.27;;;14.90;58.10;;;;;;5073121;28;20421;-79
2022/04/04 09:31:23;;;;;;;0.63;0.60;;;15.00;59.90;;;;;;5073338;28;20440;-80
2022/04/04 09:33:50;;;;;;;2.40;0.90;;;15.50;53.60;;;;;;5073311;28;20452;-80
2022/04/04 09:36:17;;;;;;;1.33;1.23;;;16.20;56.00;;;;;;5072733;28;20924;-79
2022/04/04 09:38:44;;;;;;;0.70;0.70;;;17.00;52.70;;;;;;5073302;28;20456;-80
2022/04/04 09:41:23;;;;;;;2.27;1.33;;;17.60;50.80;;;;;;5073010;28;20468;-81
2022/04/04 09:43:50;;;;;;;0.80;0.73;;;17.70;51.10;;;;;;5072927;28;20494;-80
2022/04/04 09:46:17;;;;;;;1.27;1.00;;;18.10;47.70;;;;;;5073333;28;20417;-80
2022/04/04 09:49:02;;;;;;;1.53;1.13;;;18.10;47.00;;;;;;5073176;28;20448;-79
2022/04/04 09:51:43;;;;;;;2.03;1.93;;;17.60;48.70;;;;;;5073102;28;20436;-79
2022/04/04 09:54:12;;;;;;;1.30;1.30;;;17.40;47.80;;;;;;5073681;28;20428;-79
2022/04/04 09:56:41;;;;;;;1.10;1.00;;;18.10;49.80;;;;;;5073071;28;20448;-80
2022/04/04 09:59:12;;;;;;;1.50;1.40;;;18.20;46.80;;;;;;5072960;28;20540;-81
2022/04/04 10:01:40;;;;;;;1.07;0.87;;;17.80;47.90;;;;;;5073364;28;20509;-80
2022/04/04 10:04:09;;;;;;;1.10;1.00;;;17.10;49.10;;;;;;5072906;28;20552;-80
2022/04/04 10:06:36;;;;;;;1.03;0.80;;;17.00;47.60;;;;;;5072963;28;20455;-80
2022/04/04 10:09:04;;;;;;;0.83;0.70;;;17.00;47.70;;;;;;5072895;28;20444;-80
2022/04/04 10:11:31;;;;;;;1.00;0.60;;;16.90;48.40;;;;;;5073009;28;20884;-80
2022/04/04 10:14:00;;;;;;;1.43;1.20;;;16.60;46.20;;;;;;5072602;28;20441;-80
2022/04/04 10:16:27;;;;;;;1.50;0.90;;;15.40;45.60;;;;;;5073144;28;20460;-80
2022/04/04 10:18:56;;;;;;;0.97;0.93;;;15.00;47.70;;;;;;5072672;28;20801;-79
2022/04/04 10:21:25;;;;;;;1.20;0.90;;;15.10;48.20;;;;;;5072519;28;20821;-79
2022/04/04 10:23:56;;;;;;;0.50;0.50;;;14.70;46.90;;;;;;5072369;28;20500;-78
2022/04/04 10:26:28;;;;;;;0.73;0.70;;;14.90;48.40;;;;;;5072902;28;20436;-79
2022/04/04 10:29:13;;;;;;;1.40;0.70;;;15.50;46.70;;;;;;5072833;28;20440;-79
2022/04/04 10:31:45;;;;;;;1.17;0.70;;;16.30;47.00;;;;;;5073093;28;20433;-79
2022/04/04 10:34:15;;;;;;;1.43;0.80;;;16.60;45.40;;;;;;5072803;28;20437;-80
2022/04/04 10:36:58;;;;;;;0.60;0.60;;;17.30;46.80;;;;;;5072734;28;20440;-80
2022/04/04 10:39:37;;;;;;;1.47;0.60;;;17.80;45.60;;;;;;5072701;28;20466;-80
2022/04/04 10:42:24;;;;;;;0.70;0.70;;;17.60;46.10;;;;;;5072696;28;20437;-80
2022/04/04 10:44:58;;;;;;;2.10;0.93;;;17.10;46.30;;;;;;5072858;28;20417;-80
2022/04/04 10:47:27;;;;;;;1.00;0.70;;;16.90;47.00;;;;;;5073441;28;20439;-80
2022/04/04 10:49:56;;;;;;;0.90;0.80;;;17.40;46.90;;;;;;5075785;28;20986;-80
2022/04/04 10:52:39;;;;;;;2.93;0.70;;;17.60;44.60;;;;;;5076195;28;20439;-80
2022/04/04 10:55:29;;;;;;;1.53;1.00;;;18.00;46.90;;;;;;5075836;28;20988;-79
2022/04/04 10:57:59;;;;;;;1.03;0.83;;;18.90;41.80;;;;;;5075800;28;20401;-82
2022/04/04 11:00:34;;;;;;;1.20;0.90;;;19.60;44.40;;;;;;5075579;28;21037;-82
2022/04/04 11:03:01;;;;;;;1.00;1.00;;;20.30;43.60;;;;;;5075576;28;20998;-83
2022/04/04 11:08:22;;;;;;;1.07;0.67;;;19.60;41.80;;;;;;5076089;28;20555;-83
2022/04/04 11:10:53;;;;;;;1.53;0.77;;;18.80;42.50;;;;;;5075481;28;20221;-83
2022/04/04 11:13:21;;;;;;;1.27;1.10;;;17.40;43.50;;;;;;5075969;28;20428;-83
2022/04/04 11:15:53;;;;;;;1.77;1.63;;;15.80;44.70;;;;;;5075891;28;20436;-80
2022/04/04 11:18:20;;;;;;;1.70;0.70;;;14.20;44.40;;;;;;5075378;28;20433;-80
2022/04/04 11:20:50;;;;;;;0.83;0.73;;;13.10;48.30;;;;;;5075525;28;20465;-80
2022/04/04 11:23:17;;;;;;;0.50;0.50;;;12.40;50.30;;;;;;5075247;28;20488;-80
2022/04/04 11:25:52;;;;;;;0.73;0.70;;;11.90;51.60;;;;;;5075496;28;20441;-80
2022/04/04 11:28:22;;;;;;;1.90;0.83;;;11.40;56.10;;;;;;5075702;28;20432;-80
2022/04/04 11:30:53;;;;;;;1.57;0.70;;;11.10;51.30;;;;;;5075334;28;20465;-78
2022/04/04 11:33:23;;;;;;;1.47;0.60;;;11.20;54.40;;;;;;5075105;28;20409;-78
2022/04/04 11:35:51;;;;;;;1.83;0.97;;;11.10;56.10;;;;;;5075283;28;20425;-78
2022/04/04 11:38:19;;;;;;;0.70;0.50;;;10.90;57.70;;;;;;5074839;28;20921;-79
2022/04/04 11:40:53;;;;;;;0.60;0.60;;;10.70;54.40;;;;;;5075070;28;20829;-79
2022/04/04 11:43:21;;;;;;;0.73;0.50;;;10.60;56.80;;;;;;5075021;28;20564;-79
2022/04/04 11:45:49;;;;;;;0.70;0.40;;;10.30;55.30;;;;;;5075094;28;20445;-82
2022/04/04 11:48:23;;;;;;;0.30;0.30;;;10.30;58.00;;;;;;5075083;28;20457;-82
2022/04/04 11:50:56;;;;;;;1.07;0.97;;;10.10;57.10;;;;;;5074940;28;20559;-82
2022/04/04 11:53:26;;;;;;;0.30;0.30;;;10.10;57.80;;;;;;5075009;28;20499;-81
2022/04/04 11:56:00;;;;;;;0.40;0.30;;;9.90;57.80;;;;;;5075096;28;20437;-82
2022/04/04 11:58:27;;;;;;;0.87;0.63;;;10.00;59.00;;;;;;5074458;28;20437;-79
2022/04/04 12:01:04;;;;;;;1.53;0.80;;;9.90;60.90;;;;;;5074753;28;20477;-79
2022/04/04 12:03:40;;;;;;;1.93;0.40;;;9.80;58.20;;;;;;5074918;28;20560;-79
2022/04/04 12:06:07;;;;;;;1.47;0.70;;;9.60;59.30;;;;;;5074956;28;20433;-80
2022/04/04 12:08:35;;;;;;;0.97;0.80;;;9.50;58.80;;;;;;5074795;28;20490;-79
2022/04/04 12:11:02;;;;;;;0.50;0.50;;;9.50;61.20;;;;;;5074704;28;20560;-80
2022/04/04 12:13:29;;;;;;;1.30;1.00;;;9.40;61.50;;;;;;5074444;28;20975;-80
2022/04/04 12:15:56;;;;;;;0.53;0.53;;;9.30;60.20;;;;;;5074614;28;20436;-80
2022/04/04 12:18:24;;;;;;;0.90;0.60;;;9.20;63.60;;;;;;5075221;28;20456;-80
2022/04/04 12:20:54;;;;;;;0.30;0.30;;;9.20;59.60;;;;;;5074732;28;20476;-80
2022/04/04 12:26:09;;;;;;;0.40;0.30;;;8.70;61.90;;;;;;5074468;28;20400;-80
2022/04/04 12:28:37;;;;;;;0.40;0.30;;;8.50;61.70;;;;;;5074148;28;20453;-80
2022/04/04 12:31:12;;;;;;;0.43;0.40;;;8.40;61.30;;;;;;5074201;28;20555;-79
2022/04/04 12:33:39;;;;;;;0.33;0.33;;;8.30;63.70;;;;;;5074463;28;20433;-83
2022/04/04 12:36:08;;;;;;;0.40;0.40;;;8.30;63.20;;;;;;5075652;28;20421;-83
2022/04/04 12:38:37;;;;;;;0.50;0.50;;;8.20;62.20;;;;;;5076661;28;20452;-83
2022/04/04 12:41:15;;;;;;;5.60;0.40;;;8.10;61.70;;;;;;5077249;28;20481;-83
2022/04/04 12:43:44;;;;;;;0.30;0.30;;;8.20;66.30;;;;;;5077228;28;20464;-83
2022/04/04 12:46:25;;;;;;;0.30;0.30;;;8.20;66.40;;;;;;5076544;28;20444;-82
2022/04/04 12:48:52;;;;;;;0.80;0.47;;;8.20;68.80;;;;;;5075925;28;20838;-84
2022/04/04 12:51:29;;;;;;;0.50;0.47;;;8.20;65.70;;;;;;5076465;28;20824;-83
2022/04/04 12:53:57;;;;;;;0.30;0.30;;;8.20;65.80;;;;;;5077393;28;20849;-83
2022/04/04 12:56:26;;;;;;;0.87;0.40;;;8.30;65.60;;;;;;5076738;28;20452;-83
2022/04/04 12:59:04;;;;;;;0.30;0.30;;;8.30;65.30;;;;;;5076644;28;20488;-83
2022/04/04 13:01:31;;;;;;;0.40;0.30;;;8.10;62.90;;;;;;5076561;28;20452;-83
2022/04/04 13:03:58;;;;;;;2.10;0.50;;;8.00;64.10;;;;;;5075809;28;20479;-83